Time;durP1;ratioP1;P1;durP2;ratioP2;P2;SDS_P1;SDS_P2;PMS_P1;PMS_P2;Temp;Humidity;BMP_temperature;BMP_pressure;BME280_temperature;BME280_humidity;BME280_pressure;Samples;Min_cycle;Max_cycle;Signal;HPM_P1;HPM_P2
2023/05/03 00:01:22;;;;;;;8.17;7.30;;;;;;;10.74;100.00;97228.22;5070563;28;20202;-66
2023/05/03 00:03:51;;;;;;;8.97;7.57;;;;;;;10.71;100.00;97228.50;5070783;28;20286;-66
2023/05/03 00:06:18;;;;;;;9.30;8.03;;;;;;;10.66;100.00;97233.34;5071293;28;20248;-64
2023/05/03 00:08:45;;;;;;;9.57;8.57;;;;;;;10.64;100.00;97229.97;5071603;28;20190;-66
2023/05/03 00:11:13;;;;;;;8.47;7.77;;;;;;;10.59;100.00;97226.91;5070717;28;20206;-63
2023/05/03 00:13:39;;;;;;;8.77;7.97;;;;;;;10.52;100.00;97228.38;5070573;28;20229;-63
2023/05/03 00:16:06;;;;;;;9.03;8.23;;;;;;;10.47;100.00;97230.56;5070415;28;20206;-63
2023/05/03 00:18:32;;;;;;;9.00;8.10;;;;;;;10.45;100.00;97230.69;5070561;28;20202;-63
2023/05/03 00:20:59;;;;;;;8.77;7.97;;;;;;;10.37;100.00;97229.66;5074440;28;20697;-62
2023/05/03 00:23:27;;;;;;;9.20;8.30;;;;;;;10.32;100.00;97223.91;5074866;28;20206;-61
2023/05/03 00:25:55;;;;;;;9.27;8.47;;;;;;;10.36;100.00;97227.97;5075384;28;20542;-62
2023/05/03 00:28:23;;;;;;;11.03;10.03;;;;;;;10.40;100.00;97222.31;5075073;28;20574;-62
2023/05/03 00:30:50;;;;;;;10.27;9.27;;;;;;;10.39;100.00;97222.44;5075565;28;20283;-63
2023/05/03 00:33:17;;;;;;;10.00;9.10;;;;;;;10.42;100.00;97217.72;5075697;28;20218;-64
2023/05/03 00:35:43;;;;;;;10.53;9.50;;;;;;;10.38;100.00;97223.41;5075503;28;20206;-64
2023/05/03 00:38:10;;;;;;;10.53;9.53;;;;;;;10.43;100.00;97221.22;5075677;28;20218;-65
2023/05/03 00:40:39;;;;;;;10.83;9.83;;;;;;;10.43;100.00;97218.56;5075219;28;20198;-62
2023/05/03 00:43:07;;;;;;;12.03;10.83;;;;;;;10.42;100.00;97212.44;5075450;28;20202;-62
2023/05/03 00:45:35;;;;;;;11.00;10.00;;;;;;;10.44;100.00;97214.97;5076154;28;20566;-63
2023/05/03 00:48:01;;;;;;;11.17;10.03;;;;;;;10.49;100.00;97212.75;5075347;28;20705;-64
2023/05/03 00:50:28;;;;;;;11.63;10.17;;;;;;;10.49;100.00;97203.00;5075917;28;20202;-63
2023/05/03 00:52:55;;;;;;;11.57;10.50;;;;;;;10.48;100.00;97211.09;5075513;28;20241;-62
2023/05/03 00:55:22;;;;;;;12.13;10.87;;;;;;;10.51;100.00;97210.00;5075347;28;20780;-64
2023/05/03 00:57:49;;;;;;;12.10;10.77;;;;;;;10.43;100.00;97205.34;5073239;28;20201;-63
2023/05/03 01:00:16;;;;;;;10.13;9.13;;;;;;;10.42;100.00;97203.66;5073677;28;20202;-64
2023/05/03 01:02:44;;;;;;;11.23;10.17;;;;;;;10.38;100.00;97200.44;5073978;28;20225;-64
2023/05/03 01:05:11;;;;;;;11.03;10.00;;;;;;;10.33;100.00;97204.44;5074447;28;20268;-62
2023/05/03 01:07:42;;;;;;;12.07;10.87;;;;;;;10.26;100.00;97203.28;5076004;28;20218;-65
2023/05/03 01:10:19;;;;;;;10.60;9.60;;;;;;;10.26;100.00;97200.63;5077757;28;20218;-64
2023/05/03 01:12:55;;;;;;;10.33;9.40;;;;;;;10.21;100.00;97203.63;5076669;28;20218;-63
2023/05/03 01:15:33;;;;;;;10.67;9.67;;;;;;;10.17;100.00;97198.72;5075438;28;20293;-63
2023/05/03 01:18:08;;;;;;;11.20;10.10;;;;;;;10.13;100.00;97205.22;5073880;28;20205;-62
2023/05/03 01:20:36;;;;;;;10.90;9.80;;;;;;;10.10;100.00;97202.81;5073406;28;20225;-62
2023/05/03 01:23:06;;;;;;;10.83;9.83;;;;;;;10.08;100.00;97197.66;5073458;28;20259;-64
2023/05/03 01:25:34;;;;;;;10.77;9.77;;;;;;;9.98;100.00;97202.88;5073025;28;20695;-63
2023/05/03 01:28:01;;;;;;;10.00;9.20;;;;;;;9.93;100.00;97198.91;5073226;28;20199;-64
2023/05/03 01:30:28;;;;;;;14.10;10.50;;;;;;;9.83;100.00;97198.00;5073233;28;20199;-63
2023/05/03 01:33:01;;;;;;;10.37;9.37;;;;;;;9.82;100.00;97196.31;5074289;28;20219;-63
2023/05/03 01:35:41;;;;;;;10.90;9.93;;;;;;;9.73;100.00;97197.91;5076298;28;20199;-61
2023/05/03 01:38:09;;;;;;;11.13;10.03;;;;;;;9.68;100.00;97194.78;5075621;28;20655;-63
2023/05/03 01:40:42;;;;;;;11.93;10.73;;;;;;;9.61;100.00;97204.16;5074803;28;20226;-64
2023/05/03 01:43:11;;;;;;;12.00;10.80;;;;;;;9.59;100.00;97190.28;5077919;28;20218;-64
2023/05/03 01:45:37;;;;;;;11.63;10.43;;;;;;;9.50;100.00;97197.09;5077392;28;20221;-64
2023/05/03 01:48:09;;;;;;;11.27;10.17;;;;;;;9.47;100.00;97186.81;5074536;28;20264;-64
2023/05/03 01:50:36;;;;;;;11.73;10.40;;;;;;;9.48;100.00;97188.50;5073517;28;20199;-63
2023/05/03 01:53:03;;;;;;;10.80;9.83;;;;;;;9.40;100.00;97182.13;5072837;28;20237;-63
2023/05/03 01:55:29;;;;;;;10.70;9.63;;;;;;;9.37;100.00;97185.03;5074669;28;20195;-65
2023/05/03 01:57:57;;;;;;;12.00;10.83;;;;;;;9.32;100.00;97192.44;5074215;28;20199;-64
2023/05/03 02:00:25;;;;;;;10.97;9.93;;;;;;;9.26;100.00;97190.31;5073572;28;20206;-64
2023/05/03 02:02:51;;;;;;;11.10;10.10;;;;;;;9.22;100.00;97187.06;5074588;28;20199;-63
2023/05/03 02:05:18;;;;;;;11.87;10.63;;;;;;;9.21;100.00;97190.66;5074320;28;20213;-64
2023/05/03 02:07:44;;;;;;;12.27;10.80;;;;;;;9.14;100.00;97186.03;5073166;28;20643;-64
2023/05/03 02:10:13;;;;;;;10.90;9.90;;;;;;;9.14;100.00;97188.66;5072014;28;20206;-64
2023/05/03 02:12:40;;;;;;;11.57;10.57;;;;;;;9.09;100.00;97182.88;5072633;28;20221;-63
2023/05/03 02:15:09;;;;;;;11.80;10.70;;;;;;;9.02;100.00;97195.72;5073414;28;20261;-64
2023/05/03 02:17:36;;;;;;;11.17;10.17;;;;;;;8.96;100.00;97191.75;5072795;28;20641;-64
2023/05/03 02:20:04;;;;;;;11.47;10.37;;;;;;;8.97;100.00;97187.31;5072934;28;20234;-63
2023/05/03 02:22:31;;;;;;;11.43;10.33;;;;;;;8.96;100.00;97190.94;5072503;28;20206;-64
2023/05/03 02:24:58;;;;;;;11.37;10.33;;;;;;;8.91;100.00;97198.34;5072499;28;20207;-63
2023/05/03 02:27:24;;;;;;;14.20;10.47;;;;;;;8.87;100.00;97197.75;5072583;28;20222;-63
2023/05/03 02:29:51;;;;;;;11.30;10.10;;;;;;;8.87;100.00;97197.75;5072369;28;20244;-64
2023/05/03 02:32:19;;;;;;;11.03;9.93;;;;;;;8.87;100.00;97194.28;5072152;28;20206;-63
2023/05/03 02:34:48;;;;;;;10.90;9.90;;;;;;;8.81;100.00;97192.13;5072562;28;20240;-64
2023/05/03 02:37:15;;;;;;;11.23;10.07;;;;;;;8.85;100.00;97189.13;5071771;28;20210;-63
2023/05/03 02:39:41;;;;;;;11.73;10.10;;;;;;;8.84;100.00;97186.59;5072840;28;20226;-64
2023/05/03 02:42:08;;;;;;;12.17;10.90;;;;;;;8.78;100.00;97181.81;5072460;28;20198;-64
2023/05/03 02:44:35;;;;;;;11.67;10.53;;;;;;;8.74;100.00;97180.38;5072168;28;20203;-63
2023/05/03 02:47:01;;;;;;;13.07;10.43;;;;;;;8.71;100.00;97184.09;5072025;28;20209;-63
2023/05/03 02:49:32;;;;;;;13.97;10.97;;;;;;;8.79;100.00;97186.94;5071757;28;20203;-63
2023/05/03 02:51:58;;;;;;;13.53;11.00;;;;;;;8.76;100.00;97184.56;5071528;28;20278;-63
2023/05/03 02:54:25;;;;;;;11.10;10.03;;;;;;;8.84;100.00;97184.81;5072363;28;20244;-63
2023/05/03 02:56:51;;;;;;;12.03;10.83;;;;;;;8.78;100.00;97185.28;5071975;28;20210;-64
2023/05/03 02:59:18;;;;;;;11.87;10.77;;;;;;;8.74;100.00;97181.22;5072402;28;20217;-63
2023/05/03 03:01:46;;;;;;;12.80;11.60;;;;;;;8.76;100.00;97170.53;5072125;28;20206;-63
2023/05/03 03:04:12;;;;;;;12.90;11.50;;;;;;;8.79;100.00;97176.41;5071911;28;20207;-63
2023/05/03 03:06:40;;;;;;;12.37;11.17;;;;;;;8.81;100.00;97174.50;5071245;28;20584;-64
2023/05/03 03:09:07;;;;;;;12.80;11.50;;;;;;;8.77;100.00;97177.50;5071507;28;20289;-63
2023/05/03 03:11:36;;;;;;;13.17;11.77;;;;;;;8.76;100.00;97183.72;5071142;28;20558;-62
2023/05/03 03:14:02;;;;;;;14.23;12.83;;;;;;;8.75;100.00;97177.59;5069860;28;20233;-63
2023/05/03 03:16:28;;;;;;;13.30;12.10;;;;;;;8.77;100.00;97175.69;5071975;28;20203;-64
2023/05/03 03:18:55;;;;;;;13.93;12.50;;;;;;;8.76;100.00;97176.66;5071321;28;20213;-63
2023/05/03 03:21:22;;;;;;;13.03;11.73;;;;;;;8.69;100.00;97175.44;5071386;28;20564;-64
2023/05/03 03:23:50;;;;;;;15.00;12.60;;;;;;;8.70;100.00;97171.84;5071334;28;20194;-64
2023/05/03 03:26:18;;;;;;;12.93;11.80;;;;;;;8.61;100.00;97177.81;5071647;28;20288;-63
2023/05/03 03:28:46;;;;;;;12.97;11.83;;;;;;;8.64;100.00;97180.25;5071121;28;20206;-63
2023/05/03 03:31:12;;;;;;;13.87;12.57;;;;;;;8.66;100.00;97178.31;5071228;28;20623;-62
2023/05/03 03:33:39;;;;;;;14.17;12.57;;;;;;;8.72;100.00;97185.75;5071337;28;20222;-62
2023/05/03 03:36:09;;;;;;;14.23;12.83;;;;;;;8.80;100.00;97183.38;5070946;28;20202;-64
2023/05/03 03:38:35;;;;;;;14.37;12.97;;;;;;;8.90;100.00;97186.97;5071356;28;20206;-63
2023/05/03 03:41:03;;;;;;;15.07;13.57;;;;;;;8.98;100.00;97179.31;5071227;28;20202;-63
2023/05/03 03:43:29;;;;;;;15.50;13.27;;;;;;;9.06;100.00;97176.06;5071086;28;20206;-64
2023/05/03 03:45:56;;;;;;;14.90;13.50;;;;;;;9.16;100.00;97177.00;5070871;28;20210;-64
2023/05/03 03:48:22;;;;;;;15.20;13.63;;;;;;;9.23;100.00;97177.34;5071031;28;20198;-62
2023/05/03 03:50:49;;;;;;;14.17;12.87;;;;;;;9.27;100.00;97178.81;5071294;28;20202;-61
2023/05/03 03:53:17;;;;;;;15.10;13.67;;;;;;;9.30;100.00;97178.56;5069690;28;20202;-63
2023/05/03 03:55:46;;;;;;;14.70;13.30;;;;;;;9.31;100.00;97180.25;5071229;28;20205;-63
2023/05/03 03:58:16;;;;;;;16.07;14.30;;;;;;;9.35;100.00;97186.97;5069990;28;20202;-63
2023/05/03 04:00:42;;;;;;;15.67;14.13;;;;;;;9.33;100.00;97188.88;5071287;28;20645;-62
2023/05/03 04:03:10;;;;;;;17.97;15.17;;;;;;;9.36;100.00;97178.06;5070573;28;20210;-63
2023/05/03 04:05:38;;;;;;;15.47;14.00;;;;;;;9.39;100.00;97169.88;5071379;28;20198;-64
2023/05/03 04:08:05;;;;;;;15.00;13.60;;;;;;;9.47;100.00;97173.59;5071565;28;20216;-61
2023/05/03 04:10:32;;;;;;;16.53;14.83;;;;;;;9.46;100.00;97179.84;5071317;28;20202;-63
2023/05/03 04:12:58;;;;;;;15.80;14.17;;;;;;;9.40;100.00;97179.50;5069330;28;20230;-63
2023/05/03 04:15:26;;;;;;;15.57;13.97;;;;;;;9.33;100.00;97178.31;5070774;28;20226;-63
2023/05/03 04:17:53;;;;;;;14.73;13.13;;;;;;;9.37;100.00;97177.09;5070909;28;20206;-64
2023/05/03 04:20:20;;;;;;;16.13;14.57;;;;;;;9.41;100.00;97189.09;5070644;28;20230;-62
2023/05/03 04:22:46;;;;;;;13.90;12.50;;;;;;;9.37;100.00;97190.31;5070713;28;20198;-64
2023/05/03 04:25:13;;;;;;;16.07;13.33;;;;;;;9.38;100.00;97186.72;5070741;28;20743;-63
2023/05/03 04:27:40;;;;;;;16.33;13.83;;;;;;;9.36;100.00;97193.88;5070220;28;20230;-62
2023/05/03 04:30:08;;;;;;;24.97;22.30;;;;;;;9.40;100.00;97192.69;5070579;28;20209;-64
2023/05/03 04:32:36;;;;;;;16.60;14.97;;;;;;;9.47;100.00;97193.88;5070375;28;20203;-62
2023/05/03 04:35:04;;;;;;;14.97;13.47;;;;;;;9.52;100.00;97197.00;5070686;28;20404;-61
2023/05/03 04:37:31;;;;;;;14.30;12.80;;;;;;;9.55;100.00;97199.38;5069854;28;20202;-63
2023/05/03 04:39:58;;;;;;;14.23;12.77;;;;;;;9.64;100.00;97193.34;5070106;28;20202;-62
2023/05/03 04:42:24;;;;;;;14.97;13.37;;;;;;;9.93;100.00;97201.56;5070483;28;20271;-63
2023/05/03 04:44:51;;;;;;;13.60;12.23;;;;;;;10.41;100.00;97199.34;5069978;28;20316;-63
2023/05/03 04:47:18;;;;;;;13.57;12.17;;;;;;;10.66;100.00;97206.06;5069411;28;20236;-64
2023/05/03 04:49:46;;;;;;;12.20;11.10;;;;;;;10.75;100.00;97208.75;5069619;28;20206;-64
2023/05/03 04:52:14;;;;;;;12.03;10.83;;;;;;;10.94;100.00;97216.81;5068923;28;20289;-62
2023/05/03 04:54:40;;;;;;;11.80;10.80;;;;;;;11.14;100.00;97219.53;5069780;28;20352;-64
2023/05/03 04:57:08;;;;;;;12.70;11.50;;;;;;;11.04;100.00;97219.50;5070300;28;20574;-63
2023/05/03 04:59:34;;;;;;;11.50;10.30;;;;;;;10.80;100.00;97221.59;5069235;28;20291;-63
2023/05/03 05:02:01;;;;;;;11.07;10.07;;;;;;;10.62;100.00;97226.66;5071259;28;20206;-63
2023/05/03 05:04:27;;;;;;;11.33;10.23;;;;;;;10.45;100.00;97227.22;5070902;28;20538;-63
2023/05/03 05:06:55;;;;;;;11.17;9.80;;;;;;;10.23;100.00;97228.16;5075947;28;20225;-68
2023/05/03 05:09:23;;;;;;;11.63;10.43;;;;;;;10.29;100.00;97218.88;5074530;28;20210;-64
2023/05/03 05:11:49;;;;;;;11.60;10.57;;;;;;;10.23;100.00;97235.25;5075836;28;20194;-64
2023/05/03 05:14:16;;;;;;;11.43;10.23;;;;;;;10.16;100.00;97237.56;5072763;28;20230;-63
2023/05/03 05:16:42;;;;;;;11.40;10.40;;;;;;;10.17;100.00;97239.22;5073789;28;20607;-64
2023/05/03 05:19:09;;;;;;;11.57;10.47;;;;;;;10.19;100.00;97236.47;5073222;28;20187;-63
2023/05/03 05:21:35;;;;;;;12.87;11.63;;;;;;;10.15;100.00;97248.25;5073320;28;20233;-64
2023/05/03 05:24:03;;;;;;;13.67;12.07;;;;;;;10.12;100.00;97240.53;5073409;28;20206;-64
2023/05/03 05:26:29;;;;;;;11.97;10.83;;;;;;;10.09;100.00;97243.44;5073849;28;20520;-63
2023/05/03 05:28:56;;;;;;;12.70;11.50;;;;;;;10.12;100.00;97256.41;5073523;28;20219;-64
2023/05/03 05:31:23;;;;;;;12.10;10.93;;;;;;;10.10;100.00;97258.31;5073900;28;20209;-64
2023/05/03 05:33:49;;;;;;;13.90;12.60;;;;;;;10.00;100.00;97259.06;5072696;28;20194;-64
2023/05/03 05:36:16;;;;;;;14.40;13.00;;;;;;;9.94;100.00;97256.09;5073769;28;20217;-63
2023/05/03 05:38:43;;;;;;;12.73;11.53;;;;;;;9.97;100.00;97259.31;5073143;28;20218;-64
2023/05/03 05:41:10;;;;;;;13.50;12.20;;;;;;;9.94;100.00;97269.28;5073716;28;20206;-63
2023/05/03 05:43:37;;;;;;;13.40;12.10;;;;;;;10.00;100.00;97256.44;5072504;28;20218;-63
2023/05/03 05:46:04;;;;;;;14.63;13.13;;;;;;;9.98;100.00;97254.88;5072625;28;20283;-63
2023/05/03 05:48:30;;;;;;;14.37;12.97;;;;;;;10.01;100.00;97265.19;5073581;28;20198;-63
2023/05/03 05:50:57;;;;;;;14.90;13.40;;;;;;;10.10;100.00;97264.44;5072979;28;20206;-64
2023/05/03 05:53:23;;;;;;;13.63;12.43;;;;;;;10.09;100.00;97254.84;5071690;28;20524;-64
2023/05/03 05:55:50;;;;;;;14.63;13.23;;;;;;;10.05;100.00;97256.06;5072409;28;20230;-64
2023/05/03 05:58:18;;;;;;;14.93;13.40;;;;;;;10.06;100.00;97252.44;5071977;28;21415;-63
2023/05/03 06:00:47;;;;;;;14.37;13.10;;;;;;;10.08;100.00;97261.09;5072877;28;20198;-64
2023/05/03 06:03:14;;;;;;;15.40;14.00;;;;;;;10.08;100.00;97254.97;5072756;28;20287;-64
2023/05/03 06:05:40;;;;;;;16.40;14.80;;;;;;;10.10;100.00;97251.22;5076625;28;20206;-64
2023/05/03 06:08:07;;;;;;;15.50;14.00;;;;;;;10.02;100.00;97251.84;5078601;28;20206;-64
2023/05/03 06:10:33;;;;;;;15.03;13.53;;;;;;;10.06;100.00;97251.63;5075029;28;20218;-64
2023/05/03 06:13:00;;;;;;;15.53;14.03;;;;;;;9.98;100.00;97249.59;5072017;28;20630;-64
2023/05/03 06:15:28;;;;;;;14.80;13.40;;;;;;;10.15;100.00;97250.88;5072955;28;20595;-63
2023/05/03 06:17:55;;;;;;;15.40;14.00;;;;;;;10.26;100.00;97249.06;5071739;28;20202;-63
2023/05/03 06:20:23;;;;;;;18.17;16.33;;;;;;;10.20;100.00;97254.81;5076769;28;20226;-62
2023/05/03 06:22:49;;;;;;;16.87;15.17;;;;;;;10.39;100.00;97249.72;5079189;28;20229;-63
2023/05/03 06:25:16;;;;;;;17.73;16.03;;;;;;;10.29;100.00;97259.38;5077275;28;20225;-62
2023/05/03 06:27:44;;;;;;;16.90;15.37;;;;;;;10.24;100.00;97258.03;5076014;28;20206;-64
2023/05/03 06:30:11;;;;;;;17.57;15.87;;;;;;;10.19;100.00;97266.38;5077036;28;20223;-65
2023/05/03 06:32:41;;;;;;;17.43;15.70;;;;;;;9.98;100.00;97260.16;5071914;28;20210;-64
2023/05/03 06:35:08;;;;;;;17.93;16.23;;;;;;;10.02;100.00;97262.41;5072199;28;20230;-63
2023/05/03 06:37:35;;;;;;;18.17;16.53;;;;;;;10.15;100.00;97266.75;5071436;28;20260;-64
2023/05/03 06:40:01;;;;;;;18.73;16.93;;;;;;;10.13;100.00;97258.09;5071903;28;20210;-63
2023/05/03 06:42:28;;;;;;;18.17;16.17;;;;;;;10.22;100.00;97273.22;5072910;28;20221;-64
2023/05/03 06:44:54;;;;;;;17.80;16.20;;;;;;;10.16;100.00;97264.00;5073211;28;20201;-64
2023/05/03 06:47:21;;;;;;;18.50;16.57;;;;;;;10.31;100.00;97268.00;5072816;28;20207;-62
2023/05/03 06:49:49;;;;;;;17.90;16.00;;;;;;;10.42;100.00;97273.25;5071753;28;20198;-64
2023/05/03 06:52:15;;;;;;;18.67;15.67;;;;;;;10.49;100.00;97257.69;5072107;28;20202;-64
2023/05/03 06:54:44;;;;;;;16.73;15.03;;;;;;;10.65;100.00;97260.75;5071737;28;20282;-62
2023/05/03 06:57:11;;;;;;;17.53;15.77;;;;;;;10.69;100.00;97259.53;5072097;28;20202;-64
2023/05/03 06:59:37;;;;;;;18.00;16.20;;;;;;;10.70;100.00;97266.50;5071408;28;20272;-64
2023/05/03 07:02:04;;;;;;;17.80;16.00;;;;;;;10.67;100.00;97258.81;5072640;28;20256;-64
2023/05/03 07:04:31;;;;;;;16.13;14.73;;;;;;;10.76;100.00;97255.41;5071861;28;20302;-64
2023/05/03 07:06:59;;;;;;;17.20;15.50;;;;;;;10.64;100.00;97258.25;5073048;28;20206;-64
2023/05/03 07:09:26;;;;;;;16.50;14.83;;;;;;;10.76;100.00;97247.47;5072374;28;20206;-63
2023/05/03 07:11:52;;;;;;;17.20;15.50;;;;;;;10.71;100.00;97251.47;5072742;28;20267;-64
2023/05/03 07:14:19;;;;;;;15.97;14.37;;;;;;;10.79;100.00;97249.88;5071365;28;20198;-62
2023/05/03 07:16:48;;;;;;;16.50;14.00;;;;;;;10.80;100.00;97248.91;5073163;28;20194;-64
2023/05/03 07:19:14;;;;;;;15.40;13.90;;;;;;;10.95;100.00;97244.94;5073316;28;20210;-63
2023/05/03 07:21:41;;;;;;;14.23;12.83;;;;;;;11.67;100.00;97246.63;5072775;28;20234;-64
2023/05/03 07:24:11;;;;;;;19.50;16.37;;;;;;;11.82;100.00;97237.38;5073435;28;20206;-64
2023/05/03 07:26:38;;;;;;;13.70;12.40;;;;;;;12.26;100.00;97242.16;5074027;28;20201;-63
2023/05/03 07:29:05;;;;;;;14.73;13.23;;;;;;;12.33;100.00;97237.16;5073361;28;20198;-64
2023/05/03 07:31:31;;;;;;;13.33;12.13;;;;;;;12.58;100.00;97241.03;5070067;28;20210;-63
2023/05/03 07:33:58;;;;;;;13.03;11.83;;;;;;;12.47;100.00;97239.38;5070992;28;20210;-65
2023/05/03 07:36:25;;;;;;;12.70;11.60;;;;;;;12.41;100.00;97242.59;5071003;28;20229;-64
2023/05/03 07:38:51;;;;;;;13.00;11.80;;;;;;;12.03;100.00;97234.63;5071244;28;20211;-63
2023/05/03 07:41:21;;;;;;;12.40;11.30;;;;;;;12.46;100.00;97237.72;5071093;28;20518;-63
2023/05/03 07:43:48;;;;;;;13.33;12.03;;;;;;;12.73;100.00;97227.22;5071106;28;20207;-63
2023/05/03 07:46:15;;;;;;;13.47;11.43;;;;;;;12.62;100.00;97227.38;5071356;28;20194;-64
2023/05/03 07:48:41;;;;;;;11.90;10.70;;;;;;;12.84;100.00;97218.25;5070339;28;20558;-64
2023/05/03 07:51:08;;;;;;;12.93;11.73;;;;;;;12.74;100.00;97215.63;5071228;28;20218;-64
2023/05/03 07:53:34;;;;;;;13.33;11.93;;;;;;;12.85;100.00;97215.47;5071004;28;20202;-63
2023/05/03 07:56:01;;;;;;;12.23;11.07;;;;;;;12.92;99.44;97218.38;5071652;28;20317;-64
2023/05/03 07:58:31;;;;;;;12.50;11.50;;;;;;;13.15;98.06;97205.63;5070830;28;20308;-63
2023/05/03 08:01:00;;;;;;;12.97;11.63;;;;;;;13.47;96.22;97206.03;5071342;28;20214;-64
2023/05/03 08:03:27;;;;;;;12.07;10.87;;;;;;;13.63;95.45;97198.28;5070812;28;20550;-63
2023/05/03 08:05:54;;;;;;;11.40;10.33;;;;;;;13.93;95.93;97194.44;5071392;28;20213;-62
2023/05/03 08:08:20;;;;;;;11.27;10.27;;;;;;;13.99;93.66;97183.22;5071539;28;20213;-63
2023/05/03 08:10:46;;;;;;;12.20;11.10;;;;;;;14.27;91.16;97186.66;5071042;28;20217;-64
2023/05/03 08:13:14;;;;;;;11.10;10.20;;;;;;;14.09;90.50;97183.16;5071231;28;20199;-63
2023/05/03 08:15:41;;;;;;;11.03;10.10;;;;;;;14.23;87.10;97196.75;5070606;28;20553;-63
2023/05/03 08:18:09;;;;;;;11.13;10.13;;;;;;;14.82;86.06;97192.59;5071104;28;20547;-63
2023/05/03 08:20:36;;;;;;;9.93;9.02;;;;;;;15.37;83.68;97195.78;5071198;28;20234;-62
2023/05/03 08:23:03;;;;;;;11.00;10.10;;;;;;;14.99;82.07;97198.88;5069490;28;20276;-64
2023/05/03 08:25:29;;;;;;;10.73;9.52;;;;;;;14.78;84.18;97197.41;5071003;28;20537;-64
2023/05/03 08:27:56;;;;;;;10.65;9.65;;;;;;;15.07;82.93;97189.13;5070377;28;20210;-64
2023/05/03 08:30:22;;;;;;;9.60;8.70;;;;;;;14.75;84.75;97186.22;5070767;28;20245;-63
2023/05/03 08:32:51;;;;;;;8.93;8.15;;;;;;;15.44;83.93;97184.28;5070908;28;20214;-63
2023/05/03 08:35:18;;;;;;;9.38;8.48;;;;;;;16.15;82.87;97178.56;5070866;28;20218;-64
2023/05/03 08:37:44;;;;;;;10.48;9.48;;;;;;;16.47;78.47;97166.25;5071057;28;20622;-62
2023/05/03 08:40:14;;;;;;;9.80;9.00;;;;;;;16.79;76.50;97164.41;5072099;28;20218;-63
2023/05/03 08:42:42;;;;;;;9.60;8.70;;;;;;;16.99;73.97;97174.72;5074756;28;20260;-63
2023/05/03 08:45:10;;;;;;;9.02;8.13;;;;;;;16.44;76.70;97172.72;5075312;28;20206;-63
2023/05/03 08:47:39;;;;;;;8.82;8.02;;;;;;;16.16;77.83;97174.88;5075117;28;20235;-63
2023/05/03 08:50:09;;;;;;;9.15;8.40;;;;;;;16.48;76.43;97171.41;5088355;28;20194;-63
2023/05/03 08:52:36;;;;;;;9.20;8.40;;;;;;;16.57;75.06;97166.94;5086953;28;20206;-63
2023/05/03 08:55:03;;;;;;;8.38;7.68;;;;;;;16.83;72.95;97165.72;5073455;28;20233;-63
2023/05/03 08:57:29;;;;;;;8.95;8.02;;;;;;;17.22;72.60;97167.66;5074246;28;20205;-64
2023/05/03 08:59:59;;;;;;;8.82;8.05;;;;;;;17.29;71.02;97168.63;5072869;28;20611;-63
2023/05/03 09:02:28;;;;;;;8.68;7.90;;;;;;;17.21;70.78;97171.34;5073503;28;20612;-63
2023/05/03 09:04:56;;;;;;;8.68;7.65;;;;;;;17.26;71.15;97168.97;5073782;28;20202;-64
2023/05/03 09:07:24;;;;;;;8.23;7.45;;;;;;;17.66;68.94;97160.84;5074111;28;20264;-64
2023/05/03 09:09:50;;;;;;;7.82;7.13;;;;;;;17.89;69.83;97171.56;5073567;28;20217;-64
2023/05/03 09:12:34;;;;;;;7.57;6.93;;;;;;;17.66;69.69;97171.53;5074069;28;20217;-62
2023/05/03 09:15:01;;;;;;;7.68;6.97;;;;;;;17.69;68.74;97170.34;5073226;28;20191;-64
2023/05/03 09:17:28;;;;;;;8.40;7.70;;;;;;;17.39;68.65;97174.63;5073191;28;20210;-62
2023/05/03 09:19:56;;;;;;;8.90;7.57;;;;;;;17.56;69.73;97178.06;5072565;28;20620;-66
2023/05/03 09:22:30;;;;;;;8.20;7.53;;;;;;;17.92;68.16;97170.41;5073851;28;20221;-63
2023/05/03 09:24:59;;;;;;;7.35;6.60;;;;;;;18.16;67.86;97162.22;5073615;28;20198;-64
2023/05/03 09:27:26;;;;;;;7.05;6.45;;;;;;;18.34;68.56;97165.47;5073220;28;20209;-63
2023/05/03 09:29:54;;;;;;;8.13;7.10;;;;;;;18.39;70.81;97168.41;5073451;28;20210;-64
2023/05/03 09:32:21;;;;;;;7.13;6.53;;;;;;;18.52;69.94;97166.03;5073168;28;20198;-65
2023/05/03 09:34:48;;;;;;;7.43;6.82;;;;;;;18.83;69.07;97164.06;5072947;28;20206;-65
2023/05/03 09:37:14;;;;;;;8.10;5.95;;;;;;;19.17;67.67;97176.13;5073389;28;20213;-64
2023/05/03 09:39:45;;;;;;;12.32;6.47;;;;;;;19.18;67.94;97167.06;5073718;28;20240;-62
2023/05/03 09:42:13;;;;;;;7.15;6.55;;;;;;;19.08;68.16;97174.56;5073236;28;20206;-64
2023/05/03 09:44:47;;;;;;;6.38;5.90;;;;;;;18.69;67.74;97170.22;5073858;28;20206;-63
2023/05/03 09:47:14;;;;;;;6.18;5.57;;;;;;;18.70;65.89;97166.53;5071687;28;20202;-63
2023/05/03 09:49:41;;;;;;;6.60;5.90;;;;;;;18.77;65.71;97167.50;5074089;28;20213;-63
2023/05/03 09:52:12;;;;;;;6.32;5.82;;;;;;;18.80;64.81;97172.47;5072430;28;20266;-62
2023/05/03 09:54:38;;;;;;;6.50;6.00;;;;;;;18.63;64.37;97159.41;5073367;28;20198;-63
2023/05/03 09:57:08;;;;;;;6.20;5.70;;;;;;;18.81;67.12;97166.09;5072671;28;20686;-64
2023/05/03 09:59:37;;;;;;;6.10;5.60;;;;;;;18.65;64.66;97176.97;5072105;28;20215;-63
2023/05/03 10:02:06;;;;;;;6.50;5.57;;;;;;;18.79;65.38;97169.97;5072531;28;20199;-64
2023/05/03 10:04:42;;;;;;;5.75;5.25;;;;;;;18.88;70.96;97167.03;5071485;28;20213;-62
2023/05/03 10:07:13;;;;;;;5.68;5.25;;;;;;;18.45;65.97;97167.72;5071852;28;20251;-64
2023/05/03 10:09:41;;;;;;;5.40;4.90;;;;;;;18.73;67.81;97159.97;5072575;28;20202;-65
2023/05/03 10:12:11;;;;;;;5.60;5.20;;;;;;;19.34;68.21;97165.03;5082111;28;20207;-65
2023/05/03 10:14:41;;;;;;;5.10;4.70;;;;;;;19.67;63.81;97159.31;5093958;28;20221;-65
2023/05/03 10:17:10;;;;;;;5.47;4.97;;;;;;;19.43;63.22;97162.28;5079585;28;20265;-63
2023/05/03 10:19:40;;;;;;;5.10;4.70;;;;;;;19.64;62.94;97160.53;5073154;28;20202;-62
2023/05/03 10:22:08;;;;;;;5.22;4.82;;;;;;;19.42;62.85;97157.94;5071938;28;20300;-64
2023/05/03 10:24:36;;;;;;;5.07;4.78;;;;;;;19.26;63.53;97158.94;5076782;28;20198;-63
2023/05/03 10:27:04;;;;;;;5.32;4.80;;;;;;;19.52;63.42;97153.97;5079577;28;20199;-64
2023/05/03 10:29:48;;;;;;;4.95;4.53;;;;;;;19.63;64.00;97152.66;5086909;28;20218;-65
2023/05/03 10:32:32;;;;;;;4.65;4.28;;;;;;;19.69;62.02;97147.41;5093947;28;20224;-67
2023/05/03 10:35:00;;;;;;;5.28;4.80;;;;;;;19.74;63.24;97142.28;5082378;28;20248;-63
2023/05/03 10:37:27;;;;;;;4.97;4.57;;;;;;;19.63;61.93;97139.22;5071573;28;20880;-66
2023/05/03 10:39:55;;;;;;;4.60;4.30;;;;;;;19.67;62.07;97141.38;5070577;28;20282;-64
2023/05/03 10:42:24;;;;;;;4.63;4.32;;;;;;;19.69;62.03;97136.66;5071025;28;20638;-62
2023/05/03 10:44:54;;;;;;;4.38;3.88;;;;;;;19.43;62.76;97136.31;5071315;28;20220;-66
2023/05/03 10:47:22;;;;;;;4.15;3.85;;;;;;;19.59;61.16;97136.09;5072931;28;20209;-65
2023/05/03 10:50:27;;;;;;;4.30;4.00;;;;;;;19.59;61.78;97138.78;5076816;28;20206;-65
2023/05/03 10:52:54;;;;;;;4.47;4.15;;;;;;;19.63;62.21;97121.28;5072920;28;20215;-67
2023/05/03 10:55:23;;;;;;;3.88;3.58;;;;;;;19.82;61.25;97128.75;5073758;28;20217;-64
2023/05/03 10:57:53;;;;;;;4.45;4.05;;;;;;;19.88;61.55;97128.00;5074371;28;20226;-66
2023/05/03 11:00:24;;;;;;;3.67;3.47;;;;;;;20.31;61.23;97117.31;5074096;28;20277;-66
2023/05/03 11:03:04;;;;;;;3.65;3.35;;;;;;;20.32;59.42;97113.63;5073239;28;20201;-64
2023/05/03 11:05:32;;;;;;;3.83;3.55;;;;;;;20.01;58.02;97121.94;5071023;28;20578;-65
2023/05/03 11:08:08;;;;;;;3.28;2.97;;;;;;;20.03;60.21;97116.38;5070659;28;20275;-64
2023/05/03 11:10:37;;;;;;;3.10;2.90;;;;;;;20.45;57.65;97100.28;5071512;28;20201;-65
2023/05/03 11:13:03;;;;;;;3.58;3.28;;;;;;;20.30;58.64;97112.97;5078660;28;20194;-63
2023/05/03 11:15:32;;;;;;;3.15;2.72;;;;;;;20.57;59.67;97108.66;5094242;28;20178;-65
2023/05/03 11:17:59;;;;;;;3.10;2.90;;;;;;;20.64;58.18;97110.38;5092883;28;20270;-63
2023/05/03 11:20:26;;;;;;;3.20;2.90;;;;;;;20.70;58.09;97109.59;5079296;28;20223;-62
2023/05/03 11:22:52;;;;;;;3.40;3.10;;;;;;;20.76;58.08;97108.81;5070273;28;20541;-62